Keene Summit, California
Current Conditions -  °F | °C
As of 11:56 PM on Tuesday 25 Nov 2014 (Local Time) from KUKI Reporting Station
Haze Haze  
Wind Chill: 42°   Ceiling: Unl
Heat Index: 42°   Visibility: 2.5mi
Dew Point: 39°   Wind: 0mph
Humidity: 89%   Direction: NA
Pressure: 30.35"   Gusts: NA
Location:  39.2991°N, 123.601°W
Report Text: KUKI 260756Z AUTO 00000KT 2 1/2SM BR CLR 06/04 A3035 RMK AO2 VIS 1 1/2V5 SLP275 T00560039 402000028
Loading
Personal Weather Stations






























Interactive Weather Map New forecast layout! Learn more

10-Day Weather Forecast

Advertisements
Track Severe Weather on mobile